sensor_id;sensor_type;location;lat;lon;timestamp;P1;durP1;ratioP1;P2;durP2;ratioP2
69890;SDS011;57170;43.964;21.262;2022-09-24T00:00:42;25.02;;;15.30;;
69890;SDS011;57170;43.964;21.262;2022-09-24T00:03:08;20.92;;;15.73;;
69890;SDS011;57170;43.964;21.262;2022-09-24T00:05:36;24.48;;;16.58;;
69890;SDS011;57170;43.964;21.262;2022-09-24T00:08:03;19.83;;;14.65;;
69890;SDS011;57170;43.964;21.262;2022-09-24T00:10:29;20.27;;;14.02;;
69890;SDS011;57170;43.964;21.262;2022-09-24T00:12:55;24.60;;;16.65;;
69890;SDS011;57170;43.964;21.262;2022-09-24T00:15:22;19.95;;;14.63;;
69890;SDS011;57170;43.964;21.262;2022-09-24T00:17:48;16.15;;;13.85;;
69890;SDS011;57170;43.964;21.262;2022-09-24T00:20:14;18.88;;;15.45;;
69890;SDS011;57170;43.964;21.262;2022-09-24T00:22:40;15.70;;;13.73;;
69890;SDS011;57170;43.964;21.262;2022-09-24T00:25:06;15.52;;;12.80;;
69890;SDS011;57170;43.964;21.262;2022-09-24T00:27:51;19.75;;;13.63;;
69890;SDS011;57170;43.964;21.262;2022-09-24T00:30:17;18.92;;;15.35;;
69890;SDS011;57170;43.964;21.262;2022-09-24T00:32:43;19.15;;;14.57;;
69890;SDS011;57170;43.964;21.262;2022-09-24T00:35:09;19.52;;;15.50;;
69890;SDS011;57170;43.964;21.262;2022-09-24T00:37:35;23.08;;;16.20;;
69890;SDS011;57170;43.964;21.262;2022-09-24T00:40:02;19.67;;;14.95;;
69890;SDS011;57170;43.964;21.262;2022-09-24T00:42:29;19.35;;;15.13;;
69890;SDS011;57170;43.964;21.262;2022-09-24T00:44:56;20.92;;;14.13;;
69890;SDS011;57170;43.964;21.262;2022-09-24T00:47:30;16.90;;;13.02;;
69890;SDS011;57170;43.964;21.262;2022-09-24T00:50:02;18.35;;;14.68;;
69890;SDS011;57170;43.964;21.262;2022-09-24T00:52:30;18.90;;;13.60;;
69890;SDS011;57170;43.964;21.262;2022-09-24T00:54:56;15.88;;;12.23;;
69890;SDS011;57170;43.964;21.262;2022-09-24T00:57:23;14.60;;;10.88;;
69890;SDS011;57170;43.964;21.262;2022-09-24T00:59:49;14.13;;;12.50;;
69890;SDS011;57170;43.964;21.262;2022-09-24T01:02:15;15.88;;;13.70;;
69890;SDS011;57170;43.964;21.262;2022-09-24T01:04:42;17.88;;;12.43;;
69890;SDS011;57170;43.964;21.262;2022-09-24T01:07:08;15.73;;;12.00;;
69890;SDS011;57170;43.964;21.262;2022-09-24T01:09:34;18.02;;;12.90;;
69890;SDS011;57170;43.964;21.262;2022-09-24T01:12:11;14.48;;;12.25;;
69890;SDS011;57170;43.964;21.262;2022-09-24T01:14:51;16.27;;;12.70;;
69890;SDS011;57170;43.964;21.262;2022-09-24T01:20:19;19.25;;;12.50;;
69890;SDS011;57170;43.964;21.262;2022-09-24T01:28:20;15.02;;;13.02;;
69890;SDS011;57170;43.964;21.262;2022-09-24T01:30:48;14.52;;;12.10;;
69890;SDS011;57170;43.964;21.262;2022-09-24T01:33:16;19.45;;;13.15;;
69890;SDS011;57170;43.964;21.262;2022-09-24T01:35:47;14.40;;;11.65;;
69890;SDS011;57170;43.964;21.262;2022-09-24T01:38:16;14.50;;;11.75;;
69890;SDS011;57170;43.964;21.262;2022-09-24T01:40:43;13.77;;;10.63;;
69890;SDS011;57170;43.964;21.262;2022-09-24T01:43:10;23.17;;;10.30;;
69890;SDS011;57170;43.964;21.262;2022-09-24T01:45:37;12.52;;;11.25;;
69890;SDS011;57170;43.964;21.262;2022-09-24T01:48:04;13.75;;;11.38;;
69890;SDS011;57170;43.964;21.262;2022-09-24T01:50:39;16.80;;;12.13;;
69890;SDS011;57170;43.964;21.262;2022-09-24T01:53:09;13.25;;;11.50;;
69890;SDS011;57170;43.964;21.262;2022-09-24T01:55:36;13.20;;;10.98;;
69890;SDS011;57170;43.964;21.262;2022-09-24T01:58:07;12.30;;;9.95;;
69890;SDS011;57170;43.964;21.262;2022-09-24T02:00:38;11.50;;;9.85;;
69890;SDS011;57170;43.964;21.262;2022-09-24T02:03:07;13.07;;;10.30;;
69890;SDS011;57170;43.964;21.262;2022-09-24T02:08:21;13.00;;;10.35;;
69890;SDS011;57170;43.964;21.262;2022-09-24T02:10:56;17.05;;;11.05;;
69890;SDS011;57170;43.964;21.262;2022-09-24T02:13:24;12.43;;;10.75;;
69890;SDS011;57170;43.964;21.262;2022-09-24T02:15:53;13.98;;;11.45;;
69890;SDS011;57170;43.964;21.262;2022-09-24T02:18:21;14.73;;;11.30;;
69890;SDS011;57170;43.964;21.262;2022-09-24T02:20:48;12.57;;;11.07;;
69890;SDS011;57170;43.964;21.262;2022-09-24T02:23:15;12.32;;;10.32;;
69890;SDS011;57170;43.964;21.262;2022-09-24T02:25:49;14.38;;;10.32;;
69890;SDS011;57170;43.964;21.262;2022-09-24T02:28:17;12.40;;;10.18;;
69890;SDS011;57170;43.964;21.262;2022-09-24T02:30:45;14.57;;;12.10;;
69890;SDS011;57170;43.964;21.262;2022-09-24T02:33:14;14.40;;;10.30;;
69890;SDS011;57170;43.964;21.262;2022-09-24T02:35:59;15.48;;;10.75;;
69890;SDS011;57170;43.964;21.262;2022-09-24T02:38:25;14.57;;;10.18;;
69890;SDS011;57170;43.964;21.262;2022-09-24T02:40:51;19.25;;;10.32;;
69890;SDS011;57170;43.964;21.262;2022-09-24T02:43:18;12.15;;;10.77;;
69890;SDS011;57170;43.964;21.262;2022-09-24T02:45:44;11.80;;;9.95;;
69890;SDS011;57170;43.964;21.262;2022-09-24T02:48:10;12.25;;;10.63;;
69890;SDS011;57170;43.964;21.262;2022-09-24T02:50:36;11.52;;;9.07;;
69890;SDS011;57170;43.964;21.262;2022-09-24T02:53:02;10.18;;;9.02;;
69890;SDS011;57170;43.964;21.262;2022-09-24T02:55:29;10.63;;;9.00;;
69890;SDS011;57170;43.964;21.262;2022-09-24T02:57:55;12.18;;;9.38;;
69890;SDS011;57170;43.964;21.262;2022-09-24T03:00:21;20.52;;;9.93;;
69890;SDS011;57170;43.964;21.262;2022-09-24T03:02:47;13.63;;;10.13;;
69890;SDS011;57170;43.964;21.262;2022-09-24T03:05:13;16.20;;;10.43;;
69890;SDS011;57170;43.964;21.262;2022-09-24T03:07:45;14.25;;;11.80;;
69890;SDS011;57170;43.964;21.262;2022-09-24T03:10:11;13.80;;;10.82;;
69890;SDS011;57170;43.964;21.262;2022-09-24T03:12:37;14.23;;;11.05;;
69890;SDS011;57170;43.964;21.262;2022-09-24T03:15:05;12.48;;;10.55;;
69890;SDS011;57170;43.964;21.262;2022-09-24T03:17:31;13.88;;;9.60;;
69890;SDS011;57170;43.964;21.262;2022-09-24T03:19:58;14.30;;;10.88;;
69890;SDS011;57170;43.964;21.262;2022-09-24T03:22:24;11.63;;;10.50;;
69890;SDS011;57170;43.964;21.262;2022-09-24T03:24:50;13.27;;;10.85;;
69890;SDS011;57170;43.964;21.262;2022-09-24T03:27:16;12.02;;;10.15;;
69890;SDS011;57170;43.964;21.262;2022-09-24T03:29:42;14.57;;;10.35;;
69890;SDS011;57170;43.964;21.262;2022-09-24T03:32:26;11.32;;;9.32;;
69890;SDS011;57170;43.964;21.262;2022-09-24T03:34:54;11.98;;;9.10;;
69890;SDS011;57170;43.964;21.262;2022-09-24T03:37:20;11.93;;;10.07;;
69890;SDS011;57170;43.964;21.262;2022-09-24T03:39:46;14.85;;;10.20;;
69890;SDS011;57170;43.964;21.262;2022-09-24T03:42:12;13.32;;;9.45;;
69890;SDS011;57170;43.964;21.262;2022-09-24T03:44:38;12.50;;;9.38;;
69890;SDS011;57170;43.964;21.262;2022-09-24T03:47:04;12.95;;;10.07;;
69890;SDS011;57170;43.964;21.262;2022-09-24T03:49:30;13.50;;;9.82;;
69890;SDS011;57170;43.964;21.262;2022-09-24T03:51:56;12.90;;;10.52;;
69890;SDS011;57170;43.964;21.262;2022-09-24T03:54:22;16.55;;;12.00;;
69890;SDS011;57170;43.964;21.262;2022-09-24T03:56:49;20.13;;;14.23;;
69890;SDS011;57170;43.964;21.262;2022-09-24T03:59:15;17.77;;;13.30;;
69890;SDS011;57170;43.964;21.262;2022-09-24T04:01:41;14.05;;;11.82;;
69890;SDS011;57170;43.964;21.262;2022-09-24T04:04:07;16.45;;;11.45;;
69890;SDS011;57170;43.964;21.262;2022-09-24T04:06:33;17.27;;;12.27;;
69890;SDS011;57170;43.964;21.262;2022-09-24T04:08:59;20.17;;;13.73;;
69890;SDS011;57170;43.964;21.262;2022-09-24T04:11:25;25.25;;;15.63;;
69890;SDS011;57170;43.964;21.262;2022-09-24T04:13:51;19.33;;;14.05;;
69890;SDS011;57170;43.964;21.262;2022-09-24T04:16:18;16.95;;;12.38;;
69890;SDS011;57170;43.964;21.262;2022-09-24T04:18:44;19.55;;;13.32;;
69890;SDS011;57170;43.964;21.262;2022-09-24T04:21:12;22.60;;;14.25;;
69890;SDS011;57170;43.964;21.262;2022-09-24T04:23:38;17.42;;;11.90;;
69890;SDS011;57170;43.964;21.262;2022-09-24T04:26:04;21.35;;;13.00;;
69890;SDS011;57170;43.964;21.262;2022-09-24T04:28:30;21.25;;;12.90;;
69890;SDS011;57170;43.964;21.262;2022-09-24T04:30:56;17.05;;;11.77;;
69890;SDS011;57170;43.964;21.262;2022-09-24T04:33:22;17.35;;;12.45;;
69890;SDS011;57170;43.964;21.262;2022-09-24T04:35:49;15.13;;;10.80;;
69890;SDS011;57170;43.964;21.262;2022-09-24T04:38:15;17.50;;;11.27;;
69890;SDS011;57170;43.964;21.262;2022-09-24T04:40:42;15.57;;;11.10;;
69890;SDS011;57170;43.964;21.262;2022-09-24T04:43:09;15.10;;;9.57;;
69890;SDS011;57170;43.964;21.262;2022-09-24T04:45:35;12.00;;;10.13;;
69890;SDS011;57170;43.964;21.262;2022-09-24T04:48:02;14.20;;;10.85;;
69890;SDS011;57170;43.964;21.262;2022-09-24T04:50:28;17.27;;;11.95;;
69890;SDS011;57170;43.964;21.262;2022-09-24T04:52:58;23.48;;;14.57;;
69890;SDS011;57170;43.964;21.262;2022-09-24T04:55:25;13.88;;;10.27;;
69890;SDS011;57170;43.964;21.262;2022-09-24T04:57:54;15.00;;;9.93;;
69890;SDS011;57170;43.964;21.262;2022-09-24T05:00:20;17.52;;;11.60;;
69890;SDS011;57170;43.964;21.262;2022-09-24T05:02:46;14.82;;;13.23;;
69890;SDS011;57170;43.964;21.262;2022-09-24T05:05:13;18.42;;;13.60;;
69890;SDS011;57170;43.964;21.262;2022-09-24T05:07:40;22.10;;;13.63;;
69890;SDS011;57170;43.964;21.262;2022-09-24T05:10:06;17.55;;;15.40;;
69890;SDS011;57170;43.964;21.262;2022-09-24T05:12:33;18.40;;;15.02;;
69890;SDS011;57170;43.964;21.262;2022-09-24T05:15:00;19.10;;;14.55;;
69890;SDS011;57170;43.964;21.262;2022-09-24T05:17:26;17.58;;;15.23;;
69890;SDS011;57170;43.964;21.262;2022-09-24T05:19:52;17.48;;;15.60;;
69890;SDS011;57170;43.964;21.262;2022-09-24T05:22:21;15.30;;;12.45;;
69890;SDS011;57170;43.964;21.262;2022-09-24T05:24:48;15.13;;;10.82;;
69890;SDS011;57170;43.964;21.262;2022-09-24T05:27:14;13.50;;;11.02;;
69890;SDS011;57170;43.964;21.262;2022-09-24T05:29:41;15.68;;;11.52;;
69890;SDS011;57170;43.964;21.262;2022-09-24T05:32:12;26.50;;;16.98;;
69890;SDS011;57170;43.964;21.262;2022-09-24T05:34:39;15.65;;;12.68;;
69890;SDS011;57170;43.964;21.262;2022-09-24T05:37:07;12.80;;;10.98;;
69890;SDS011;57170;43.964;21.262;2022-09-24T05:39:34;14.98;;;10.63;;
69890;SDS011;57170;43.964;21.262;2022-09-24T05:42:00;12.32;;;9.75;;
69890;SDS011;57170;43.964;21.262;2022-09-24T05:44:29;13.40;;;9.32;;
69890;SDS011;57170;43.964;21.262;2022-09-24T05:46:56;12.82;;;10.02;;
69890;SDS011;57170;43.964;21.262;2022-09-24T05:49:22;12.60;;;10.05;;
69890;SDS011;57170;43.964;21.262;2022-09-24T05:51:49;14.10;;;11.30;;
69890;SDS011;57170;43.964;21.262;2022-09-24T05:54:16;21.23;;;13.18;;
69890;SDS011;57170;43.964;21.262;2022-09-24T05:56:42;11.95;;;10.73;;
69890;SDS011;57170;43.964;21.262;2022-09-24T05:59:09;14.25;;;11.13;;
69890;SDS011;57170;43.964;21.262;2022-09-24T06:01:35;17.58;;;13.38;;
69890;SDS011;57170;43.964;21.262;2022-09-24T06:04:01;14.50;;;12.95;;
69890;SDS011;57170;43.964;21.262;2022-09-24T06:06:27;16.08;;;12.13;;
69890;SDS011;57170;43.964;21.262;2022-09-24T06:08:53;11.20;;;9.13;;
69890;SDS011;57170;43.964;21.262;2022-09-24T06:11:20;14.75;;;10.82;;
69890;SDS011;57170;43.964;21.262;2022-09-24T06:13:47;11.75;;;9.48;;
69890;SDS011;57170;43.964;21.262;2022-09-24T06:16:13;11.63;;;10.05;;
69890;SDS011;57170;43.964;21.262;2022-09-24T06:18:40;19.58;;;17.67;;
69890;SDS011;57170;43.964;21.262;2022-09-24T06:21:10;10.27;;;9.27;;
69890;SDS011;57170;43.964;21.262;2022-09-24T06:23:37;13.48;;;9.57;;
69890;SDS011;57170;43.964;21.262;2022-09-24T06:26:04;11.70;;;10.48;;
69890;SDS011;57170;43.964;21.262;2022-09-24T06:28:32;10.60;;;9.52;;
69890;SDS011;57170;43.964;21.262;2022-09-24T06:30:58;9.73;;;8.52;;
69890;SDS011;57170;43.964;21.262;2022-09-24T06:33:25;10.13;;;9.13;;
69890;SDS011;57170;43.964;21.262;2022-09-24T06:35:52;9.98;;;8.63;;
69890;SDS011;57170;43.964;21.262;2022-09-24T06:38:18;9.98;;;8.95;;
69890;SDS011;57170;43.964;21.262;2022-09-24T06:40:44;10.32;;;9.43;;
69890;SDS011;57170;43.964;21.262;2022-09-24T06:43:12;9.23;;;8.07;;
69890;SDS011;57170;43.964;21.262;2022-09-24T06:45:39;9.85;;;8.48;;
69890;SDS011;57170;43.964;21.262;2022-09-24T06:48:08;9.60;;;8.80;;
69890;SDS011;57170;43.964;21.262;2022-09-24T06:50:34;9.07;;;8.27;;
69890;SDS011;57170;43.964;21.262;2022-09-24T06:53:03;9.00;;;8.10;;
69890;SDS011;57170;43.964;21.262;2022-09-24T06:55:29;8.25;;;7.45;;
69890;SDS011;57170;43.964;21.262;2022-09-24T07:00:28;9.23;;;8.43;;
69890;SDS011;57170;43.964;21.262;2022-09-24T07:02:54;9.68;;;8.88;;
69890;SDS011;57170;43.964;21.262;2022-09-24T07:05:20;9.55;;;8.65;;
69890;SDS011;57170;43.964;21.262;2022-09-24T07:07:46;10.20;;;9.30;;
69890;SDS011;57170;43.964;21.262;2022-09-24T07:10:12;9.68;;;8.88;;
69890;SDS011;57170;43.964;21.262;2022-09-24T07:12:40;10.60;;;9.60;;
69890;SDS011;57170;43.964;21.262;2022-09-24T07:15:06;10.80;;;9.82;;
69890;SDS011;57170;43.964;21.262;2022-09-24T07:17:33;10.25;;;9.35;;
69890;SDS011;57170;43.964;21.262;2022-09-24T07:19:59;12.07;;;10.88;;
69890;SDS011;57170;43.964;21.262;2022-09-24T07:22:25;13.27;;;11.85;;
69890;SDS011;57170;43.964;21.262;2022-09-24T07:24:51;13.15;;;11.85;;
69890;SDS011;57170;43.964;21.262;2022-09-24T07:27:17;13.07;;;11.80;;
69890;SDS011;57170;43.964;21.262;2022-09-24T07:29:45;13.55;;;12.20;;
69890;SDS011;57170;43.964;21.262;2022-09-24T07:32:11;14.10;;;12.30;;
69890;SDS011;57170;43.964;21.262;2022-09-24T07:34:39;12.43;;;10.73;;
69890;SDS011;57170;43.964;21.262;2022-09-24T07:37:05;12.85;;;11.65;;
69890;SDS011;57170;43.964;21.262;2022-09-24T07:39:31;12.68;;;11.38;;
69890;SDS011;57170;43.964;21.262;2022-09-24T07:41:57;13.60;;;12.30;;
69890;SDS011;57170;43.964;21.262;2022-09-24T07:44:25;17.88;;;11.18;;
69890;SDS011;57170;43.964;21.262;2022-09-24T07:46:53;12.27;;;11.07;;
69890;SDS011;57170;43.964;21.262;2022-09-24T07:49:19;14.13;;;12.75;;
69890;SDS011;57170;43.964;21.262;2022-09-24T07:51:46;12.85;;;11.48;;
69890;SDS011;57170;43.964;21.262;2022-09-24T07:54:13;14.20;;;12.90;;
69890;SDS011;57170;43.964;21.262;2022-09-24T07:56:41;9.77;;;8.88;;
69890;SDS011;57170;43.964;21.262;2022-09-24T07:59:07;10.77;;;9.65;;
69890;SDS011;57170;43.964;21.262;2022-09-24T08:01:35;10.15;;;9.15;;
69890;SDS011;57170;43.964;21.262;2022-09-24T08:04:01;8.27;;;7.47;;
69890;SDS011;57170;43.964;21.262;2022-09-24T08:06:33;11.68;;;10.57;;
69890;SDS011;57170;43.964;21.262;2022-09-24T08:08:59;10.07;;;9.23;;
69890;SDS011;57170;43.964;21.262;2022-09-24T08:11:26;10.20;;;9.20;;
69890;SDS011;57170;43.964;21.262;2022-09-24T08:13:54;10.18;;;9.18;;
69890;SDS011;57170;43.964;21.262;2022-09-24T08:16:20;10.60;;;9.65;;
69890;SDS011;57170;43.964;21.262;2022-09-24T08:18:46;11.02;;;9.80;;
69890;SDS011;57170;43.964;21.262;2022-09-24T08:21:13;9.90;;;9.10;;
69890;SDS011;57170;43.964;21.262;2022-09-24T08:23:39;11.73;;;9.75;;
69890;SDS011;57170;43.964;21.262;2022-09-24T08:26:06;10.77;;;9.30;;
69890;SDS011;57170;43.964;21.262;2022-09-24T08:28:32;9.95;;;7.80;;
69890;SDS011;57170;43.964;21.262;2022-09-24T08:31:03;8.38;;;7.57;;
69890;SDS011;57170;43.964;21.262;2022-09-24T08:33:32;8.82;;;8.02;;
69890;SDS011;57170;43.964;21.262;2022-09-24T08:35:59;8.15;;;7.45;;
69890;SDS011;57170;43.964;21.262;2022-09-24T08:38:25;8.50;;;7.70;;
69890;SDS011;57170;43.964;21.262;2022-09-24T08:41:41;8.35;;;7.63;;
69890;SDS011;57170;43.964;21.262;2022-09-24T08:46:18;8.93;;;8.13;;
69890;SDS011;57170;43.964;21.262;2022-09-24T08:49:04;8.98;;;8.10;;
69890;SDS011;57170;43.964;21.262;2022-09-24T08:51:34;8.85;;;8.05;;
69890;SDS011;57170;43.964;21.262;2022-09-24T08:54:04;8.55;;;7.82;;
69890;SDS011;57170;43.964;21.262;2022-09-24T08:56:33;8.77;;;7.97;;
69890;SDS011;57170;43.964;21.262;2022-09-24T08:59:01;8.20;;;7.40;;
69890;SDS011;57170;43.964;21.262;2022-09-24T09:03:57;8.50;;;7.70;;
69890;SDS011;57170;43.964;21.262;2022-09-24T09:09:15;7.82;;;6.88;;
69890;SDS011;57170;43.964;21.262;2022-09-24T09:11:48;9.45;;;7.15;;
69890;SDS011;57170;43.964;21.262;2022-09-24T09:14:16;8.18;;;7.38;;
69890;SDS011;57170;43.964;21.262;2022-09-24T09:19:13;7.95;;;6.85;;
69890;SDS011;57170;43.964;21.262;2022-09-24T09:24:13;6.97;;;6.28;;
69890;SDS011;57170;43.964;21.262;2022-09-24T09:26:42;7.85;;;7.15;;
69890;SDS011;57170;43.964;21.262;2022-09-24T09:29:08;8.00;;;6.15;;
69890;SDS011;57170;43.964;21.262;2022-09-24T09:42:18;6.40;;;5.80;;
69890;SDS011;57170;43.964;21.262;2022-09-24T09:44:48;9.07;;;6.50;;
69890;SDS011;57170;43.964;21.262;2022-09-24T09:47:19;9.55;;;6.20;;
69890;SDS011;57170;43.964;21.262;2022-09-24T09:49:49;6.47;;;5.50;;
69890;SDS011;57170;43.964;21.262;2022-09-24T09:52:18;6.97;;;6.28;;
69890;SDS011;57170;43.964;21.262;2022-09-24T09:54:45;7.63;;;6.13;;
69890;SDS011;57170;43.964;21.262;2022-09-24T09:57:15;6.72;;;6.00;;
69890;SDS011;57170;43.964;21.262;2022-09-24T09:59:50;9.25;;;6.18;;
69890;SDS011;57170;43.964;21.262;2022-09-24T10:02:21;8.23;;;5.45;;
69890;SDS011;57170;43.964;21.262;2022-09-24T10:04:51;6.93;;;6.10;;
69890;SDS011;57170;43.964;21.262;2022-09-24T10:07:17;8.23;;;6.35;;
69890;SDS011;57170;43.964;21.262;2022-09-24T10:09:44;8.27;;;6.40;;
69890;SDS011;57170;43.964;21.262;2022-09-24T10:12:14;7.70;;;5.22;;
69890;SDS011;57170;43.964;21.262;2022-09-24T10:14:41;10.02;;;6.28;;
69890;SDS011;57170;43.964;21.262;2022-09-24T10:17:15;7.43;;;5.85;;
69890;SDS011;57170;43.964;21.262;2022-09-24T10:19:42;7.00;;;5.20;;
69890;SDS011;57170;43.964;21.262;2022-09-24T10:22:21;8.38;;;5.60;;
69890;SDS011;57170;43.964;21.262;2022-09-24T10:24:48;8.43;;;5.85;;
69890;SDS011;57170;43.964;21.262;2022-09-24T10:27:19;7.00;;;5.93;;
69890;SDS011;57170;43.964;21.262;2022-09-24T10:29:50;8.27;;;6.28;;
69890;SDS011;57170;43.964;21.262;2022-09-24T10:32:36;7.05;;;5.50;;
69890;SDS011;57170;43.964;21.262;2022-09-24T10:35:03;8.27;;;5.95;;
69890;SDS011;57170;43.964;21.262;2022-09-24T10:37:30;8.07;;;5.90;;
69890;SDS011;57170;43.964;21.262;2022-09-24T10:40:00;9.80;;;6.70;;
69890;SDS011;57170;43.964;21.262;2022-09-24T10:42:28;10.20;;;5.60;;
69890;SDS011;57170;43.964;21.262;2022-09-24T10:44:54;8.00;;;5.47;;
69890;SDS011;57170;43.964;21.262;2022-09-24T11:06:01;7.25;;;5.20;;
69890;SDS011;57170;43.964;21.262;2022-09-24T11:24:18;6.38;;;5.10;;
69890;SDS011;57170;43.964;21.262;2022-09-24T11:50:28;6.68;;;5.05;;
69890;SDS011;57170;43.964;21.262;2022-09-24T11:53:01;7.95;;;4.70;;
69890;SDS011;57170;43.964;21.262;2022-09-24T11:55:32;7.40;;;5.32;;
69890;SDS011;57170;43.964;21.262;2022-09-24T11:58:10;6.72;;;3.20;;
69890;SDS011;57170;43.964;21.262;2022-09-24T12:00:48;6.15;;;4.78;;
69890;SDS011;57170;43.964;21.262;2022-09-24T12:03:19;6.10;;;4.75;;
69890;SDS011;57170;43.964;21.262;2022-09-24T12:08:55;7.70;;;4.72;;
69890;SDS011;57170;43.964;21.262;2022-09-24T12:11:22;6.30;;;4.93;;
69890;SDS011;57170;43.964;21.262;2022-09-24T12:13:49;5.18;;;4.25;;
69890;SDS011;57170;43.964;21.262;2022-09-24T12:16:19;6.85;;;4.85;;
69890;SDS011;57170;43.964;21.262;2022-09-24T12:18:54;8.02;;;5.32;;
69890;SDS011;57170;43.964;21.262;2022-09-24T12:21:40;6.85;;;4.85;;
69890;SDS011;57170;43.964;21.262;2022-09-24T12:24:16;7.25;;;4.82;;
69890;SDS011;57170;43.964;21.262;2022-09-24T12:26:43;8.13;;;4.60;;
69890;SDS011;57170;43.964;21.262;2022-09-24T12:35:10;7.05;;;4.68;;
69890;SDS011;57170;43.964;21.262;2022-09-24T12:37:37;7.07;;;4.80;;
69890;SDS011;57170;43.964;21.262;2022-09-24T12:42:35;5.45;;;4.05;;
69890;SDS011;57170;43.964;21.262;2022-09-24T12:45:04;7.68;;;5.78;;
69890;SDS011;57170;43.964;21.262;2022-09-24T12:47:32;4.82;;;3.95;;
69890;SDS011;57170;43.964;21.262;2022-09-24T12:50:03;8.00;;;4.20;;
69890;SDS011;57170;43.964;21.262;2022-09-24T12:55:02;5.75;;;4.78;;
69890;SDS011;57170;43.964;21.262;2022-09-24T12:57:35;7.43;;;4.70;;
69890;SDS011;57170;43.964;21.262;2022-09-24T13:00:33;7.68;;;4.82;;
69890;SDS011;57170;43.964;21.262;2022-09-24T13:02:50;7.25;;;4.80;;
69890;SDS011;57170;43.964;21.262;2022-09-24T13:07:59;5.70;;;4.47;;
69890;SDS011;57170;43.964;21.262;2022-09-24T13:10:27;5.57;;;4.40;;
69890;SDS011;57170;43.964;21.262;2022-09-24T13:12:54;7.70;;;5.13;;
69890;SDS011;57170;43.964;21.262;2022-09-24T13:15:37;7.60;;;5.15;;
69890;SDS011;57170;43.964;21.262;2022-09-24T13:20:31;7.35;;;6.10;;
69890;SDS011;57170;43.964;21.262;2022-09-24T13:28:22;6.88;;;5.05;;
69890;SDS011;57170;43.964;21.262;2022-09-24T13:30:54;8.80;;;5.60;;
69890;SDS011;57170;43.964;21.262;2022-09-24T13:33:32;7.20;;;5.57;;
69890;SDS011;57170;43.964;21.262;2022-09-24T13:36:03;7.13;;;4.97;;
69890;SDS011;57170;43.964;21.262;2022-09-24T13:38:34;7.07;;;5.03;;
69890;SDS011;57170;43.964;21.262;2022-09-24T13:41:13;5.45;;;4.30;;
69890;SDS011;57170;43.964;21.262;2022-09-24T13:43:44;6.80;;;4.90;;
69890;SDS011;57170;43.964;21.262;2022-09-24T13:46:13;6.90;;;4.82;;
69890;SDS011;57170;43.964;21.262;2022-09-24T13:48:41;6.72;;;4.60;;
69890;SDS011;57170;43.964;21.262;2022-09-24T13:51:10;6.30;;;4.60;;
69890;SDS011;57170;43.964;21.262;2022-09-24T13:53:44;6.78;;;4.40;;
69890;SDS011;57170;43.964;21.262;2022-09-24T13:56:14;6.95;;;4.43;;
69890;SDS011;57170;43.964;21.262;2022-09-24T13:58:41;6.55;;;4.70;;
69890;SDS011;57170;43.964;21.262;2022-09-24T14:01:13;6.70;;;5.05;;
69890;SDS011;57170;43.964;21.262;2022-09-24T14:03:40;7.15;;;4.82;;
69890;SDS011;57170;43.964;21.262;2022-09-24T14:06:10;7.50;;;5.30;;
69890;SDS011;57170;43.964;21.262;2022-09-24T14:08:38;7.35;;;4.60;;
69890;SDS011;57170;43.964;21.262;2022-09-24T14:11:05;8.57;;;4.68;;
69890;SDS011;57170;43.964;21.262;2022-09-24T14:13:37;5.93;;;4.57;;
69890;SDS011;57170;43.964;21.262;2022-09-24T14:16:11;6.00;;;3.28;;
69890;SDS011;57170;43.964;21.262;2022-09-24T14:18:38;4.50;;;3.03;;
69890;SDS011;57170;43.964;21.262;2022-09-24T14:21:06;5.05;;;4.28;;
69890;SDS011;57170;43.964;21.262;2022-09-24T14:23:55;6.80;;;3.55;;
69890;SDS011;57170;43.964;21.262;2022-09-24T14:26:37;7.05;;;2.88;;
69890;SDS011;57170;43.964;21.262;2022-09-24T14:29:06;5.85;;;3.15;;
69890;SDS011;57170;43.964;21.262;2022-09-24T14:31:45;4.05;;;2.67;;
69890;SDS011;57170;43.964;21.262;2022-09-24T14:34:14;6.03;;;3.95;;
69890;SDS011;57170;43.964;21.262;2022-09-24T14:36:44;9.57;;;3.25;;
69890;SDS011;57170;43.964;21.262;2022-09-24T14:39:11;7.05;;;3.55;;
69890;SDS011;57170;43.964;21.262;2022-09-24T14:41:38;4.72;;;3.30;;
69890;SDS011;57170;43.964;21.262;2022-09-24T14:44:05;4.43;;;3.08;;
69890;SDS011;57170;43.964;21.262;2022-09-24T14:46:34;5.78;;;3.35;;
69890;SDS011;57170;43.964;21.262;2022-09-24T14:49:13;4.68;;;3.40;;
69890;SDS011;57170;43.964;21.262;2022-09-24T14:51:49;4.28;;;2.95;;
69890;SDS011;57170;43.964;21.262;2022-09-24T14:56:44;5.18;;;3.92;;
69890;SDS011;57170;43.964;21.262;2022-09-24T14:59:14;7.38;;;4.75;;
69890;SDS011;57170;43.964;21.262;2022-09-24T15:01:42;5.22;;;3.60;;
69890;SDS011;57170;43.964;21.262;2022-09-24T15:04:21;8.60;;;4.20;;
69890;SDS011;57170;43.964;21.262;2022-09-24T15:06:48;11.65;;;6.13;;
69890;SDS011;57170;43.964;21.262;2022-09-24T15:09:24;8.02;;;6.05;;
69890;SDS011;57170;43.964;21.262;2022-09-24T15:11:51;8.60;;;6.13;;
69890;SDS011;57170;43.964;21.262;2022-09-24T15:14:20;8.32;;;5.93;;
69890;SDS011;57170;43.964;21.262;2022-09-24T15:16:51;10.52;;;6.65;;
69890;SDS011;57170;43.964;21.262;2022-09-24T15:19:18;9.93;;;5.20;;
69890;SDS011;57170;43.964;21.262;2022-09-24T15:21:49;12.75;;;6.65;;
69890;SDS011;57170;43.964;21.262;2022-09-24T15:24:16;10.20;;;5.97;;
69890;SDS011;57170;43.964;21.262;2022-09-24T15:26:44;8.90;;;6.45;;
69890;SDS011;57170;43.964;21.262;2022-09-24T15:29:20;9.40;;;6.57;;
69890;SDS011;57170;43.964;21.262;2022-09-24T15:31:51;11.10;;;8.55;;
69890;SDS011;57170;43.964;21.262;2022-09-24T15:34:18;9.95;;;6.38;;
69890;SDS011;57170;43.964;21.262;2022-09-24T15:36:45;14.57;;;7.75;;
69890;SDS011;57170;43.964;21.262;2022-09-24T15:39:11;10.75;;;8.15;;
69890;SDS011;57170;43.964;21.262;2022-09-24T15:41:37;9.35;;;6.97;;
69890;SDS011;57170;43.964;21.262;2022-09-24T15:44:04;9.27;;;6.50;;
69890;SDS011;57170;43.964;21.262;2022-09-24T15:46:30;10.15;;;6.90;;
69890;SDS011;57170;43.964;21.262;2022-09-24T15:48:56;20.05;;;8.95;;
69890;SDS011;57170;43.964;21.262;2022-09-24T15:51:22;12.65;;;7.80;;
69890;SDS011;57170;43.964;21.262;2022-09-24T15:53:48;11.95;;;8.60;;
69890;SDS011;57170;43.964;21.262;2022-09-24T15:56:15;12.35;;;9.38;;
69890;SDS011;57170;43.964;21.262;2022-09-24T15:58:41;9.82;;;8.25;;
69890;SDS011;57170;43.964;21.262;2022-09-24T16:01:12;11.93;;;8.77;;
69890;SDS011;57170;43.964;21.262;2022-09-24T16:03:41;13.68;;;10.20;;
69890;SDS011;57170;43.964;21.262;2022-09-24T16:06:08;11.77;;;7.72;;
69890;SDS011;57170;43.964;21.262;2022-09-24T16:08:35;9.00;;;7.25;;
69890;SDS011;57170;43.964;21.262;2022-09-24T16:11:01;11.65;;;8.55;;
69890;SDS011;57170;43.964;21.262;2022-09-24T16:13:29;12.23;;;9.45;;
69890;SDS011;57170;43.964;21.262;2022-09-24T16:15:55;13.20;;;8.93;;
69890;SDS011;57170;43.964;21.262;2022-09-24T16:18:21;12.73;;;7.45;;
69890;SDS011;57170;43.964;21.262;2022-09-24T16:20:50;10.73;;;7.85;;
69890;SDS011;57170;43.964;21.262;2022-09-24T16:23:16;9.95;;;6.63;;
69890;SDS011;57170;43.964;21.262;2022-09-24T16:25:56;8.52;;;5.55;;
69890;SDS011;57170;43.964;21.262;2022-09-24T16:28:22;8.85;;;6.25;;
69890;SDS011;57170;43.964;21.262;2022-09-24T16:30:48;10.68;;;6.13;;